createdAt,value
2023-12-31T00:00:19.933Z,1010.4277063440001
2023-12-31T00:01:23.965Z,1010.7324804360001
2023-12-31T00:02:27.943Z,1010.5292977080001
2023-12-31T00:03:31.449Z,1010.8340718000001
2023-12-31T00:04:31.402Z,1010.630889072
2023-12-31T00:05:31.381Z,1010.5292977080001
2023-12-31T00:06:31.383Z,1010.630889072
2023-12-31T00:07:31.391Z,1010.5292977080001
2023-12-31T00:08:32.327Z,1010.7324804360001
2023-12-31T00:09:32.404Z,1010.630889072
2023-12-31T00:10:32.566Z,1010.7324804360001
2023-12-31T00:11:31.958Z,1010.935663164
2023-12-31T00:12:32.383Z,1010.8340718000001
2023-12-31T00:13:32.446Z,1010.8340718000001
2023-12-31T00:14:32.395Z,1010.7324804360001
2023-12-31T00:15:31.944Z,1010.8340718000001
2023-12-31T00:16:32.461Z,1010.7324804360001
2023-12-31T00:17:32.343Z,1010.7324804360001
2023-12-31T00:18:32.442Z,1011.1388458920001
2023-12-31T00:19:32.147Z,1010.7324804360001
2023-12-31T00:20:32.368Z,1010.7324804360001
2023-12-31T00:21:32.407Z,1011.1388458920001
2023-12-31T00:22:32.373Z,1010.935663164
2023-12-31T00:23:32.162Z,1011.0372545280001
2023-12-31T00:24:32.501Z,1011.0372545280001
2023-12-31T00:25:32.531Z,1011.0372545280001
2023-12-31T00:26:32.536Z,1011.0372545280001
2023-12-31T00:27:32.078Z,1011.0372545280001
2023-12-31T00:28:32.545Z,1011.0372545280001
2023-12-31T00:29:32.474Z,1011.1388458920001
2023-12-31T00:30:32.593Z,1011.0372545280001
2023-12-31T00:31:32.085Z,1010.935663164
2023-12-31T00:32:32.586Z,1011.1388458920001
2023-12-31T00:33:32.558Z,1011.0372545280001
2023-12-31T00:34:32.499Z,1010.935663164
2023-12-31T00:35:32.096Z,1010.935663164
2023-12-31T00:36:32.666Z,1010.935663164
2023-12-31T00:37:32.513Z,1010.8340718000001
2023-12-31T00:38:32.580Z,1010.935663164
2023-12-31T00:39:32.141Z,1010.8340718000001
2023-12-31T00:40:32.495Z,1010.8340718000001
2023-12-31T00:41:32.507Z,1010.8340718000001
2023-12-31T00:42:32.584Z,1010.8340718000001
2023-12-31T00:43:32.112Z,1010.8340718000001
2023-12-31T00:44:32.430Z,1010.935663164
2023-12-31T00:45:32.511Z,1011.0372545280001
2023-12-31T00:46:32.614Z,1010.630889072
2023-12-31T00:47:32.123Z,1010.935663164
2023-12-31T00:48:32.480Z,1010.8340718000001
2023-12-31T00:49:32.625Z,1011.0372545280001
2023-12-31T00:50:32.498Z,1010.630889072
2023-12-31T00:51:32.027Z,1010.935663164
2023-12-31T00:52:32.456Z,1010.935663164
2023-12-31T00:53:32.513Z,1010.935663164
2023-12-31T00:54:32.481Z,1011.0372545280001
2023-12-31T00:55:32.128Z,1010.935663164
2023-12-31T00:56:32.418Z,1010.935663164
2023-12-31T00:57:32.530Z,1010.935663164
2023-12-31T00:58:32.503Z,1010.935663164
2023-12-31T00:59:32.044Z,1010.8340718000001
2023-12-31T01:00:32.519Z,1010.935663164
2023-12-31T01:01:32.435Z,1010.935663164
2023-12-31T01:02:32.393Z,1011.0372545280001
2023-12-31T01:03:32.019Z,1010.935663164
2023-12-31T01:04:32.492Z,1010.935663164
2023-12-31T01:05:32.393Z,1010.935663164
2023-12-31T01:06:32.427Z,1011.0372545280001
2023-12-31T01:07:31.989Z,1011.1388458920001
2023-12-31T01:08:32.329Z,1010.935663164
2023-12-31T01:09:32.461Z,1010.8340718000001
2023-12-31T01:10:32.397Z,1011.1388458920001
2023-12-31T01:11:32.020Z,1010.935663164
2023-12-31T01:12:32.444Z,1010.935663164
2023-12-31T01:13:32.720Z,1010.935663164
2023-12-31T01:14:32.523Z,1010.935663164
2023-12-31T01:15:31.951Z,1010.8340718000001
2023-12-31T01:16:32.358Z,1011.0372545280001
2023-12-31T01:17:32.567Z,1010.630889072
2023-12-31T01:18:32.408Z,1010.7324804360001
2023-12-31T01:19:32.219Z,1010.8340718000001
2023-12-31T01:20:32.436Z,1010.935663164
2023-12-31T01:21:32.361Z,1010.935663164
2023-12-31T01:22:32.433Z,1010.935663164
2023-12-31T01:23:31.911Z,1010.935663164
2023-12-31T01:24:32.451Z,1010.935663164
2023-12-31T01:25:32.438Z,1011.1388458920001
2023-12-31T01:26:32.439Z,1010.935663164
2023-12-31T01:27:31.961Z,1011.1388458920001
2023-12-31T01:28:32.475Z,1010.935663164
2023-12-31T01:29:32.360Z,1011.0372545280001
2023-12-31T01:30:32.541Z,1010.935663164
2023-12-31T01:31:32.139Z,1011.0372545280001
2023-12-31T01:32:32.520Z,1011.1388458920001
2023-12-31T01:33:32.570Z,1011.2404372559998
2023-12-31T01:34:32.464Z,1011.0372545280001
2023-12-31T01:35:32.013Z,1011.0372545280001
2023-12-31T01:36:32.359Z,1011.1388458920001
2023-12-31T01:37:32.394Z,1011.308164832
2023-12-31T01:38:32.405Z,1011.308164832
2023-12-31T01:39:31.882Z,1011.1388458920001
2023-12-31T01:40:32.339Z,1011.409756196
2023-12-31T01:41:32.472Z,1011.2404372559998
2023-12-31T01:42:32.331Z,1011.2404372559998
2023-12-31T01:43:31.996Z,1011.308164832
2023-12-31T01:44:32.477Z,1011.308164832
2023-12-31T01:45:32.420Z,1011.1388458920001
2023-12-31T01:46:32.501Z,1011.308164832
2023-12-31T01:47:32.039Z,1011.1388458920001
2023-12-31T01:48:32.563Z,1011.308164832
2023-12-31T01:49:32.387Z,1011.51134756
2023-12-31T01:50:32.451Z,1011.2404372559998
2023-12-31T01:51:31.924Z,1011.2404372559998
2023-12-31T01:52:32.484Z,1011.308164832
2023-12-31T01:53:32.360Z,1011.308164832
2023-12-31T01:54:32.366Z,1011.308164832
2023-12-31T01:55:32.045Z,1011.612938924
2023-12-31T01:56:32.503Z,1011.2404372559998
2023-12-31T01:57:32.480Z,1011.308164832
2023-12-31T01:58:32.452Z,1011.409756196
2023-12-31T01:59:32.031Z,1011.409756196
2023-12-31T02:00:32.588Z,1011.409756196
2023-12-31T02:01:32.465Z,1011.7145302880001
2023-12-31T02:02:32.368Z,1011.409756196
2023-12-31T02:03:32.090Z,1011.308164832
2023-12-31T02:04:32.603Z,1011.308164832
2023-12-31T02:05:32.414Z,1011.409756196
2023-12-31T02:06:32.432Z,1011.612938924
2023-12-31T02:07:31.993Z,1011.612938924
2023-12-31T02:08:32.419Z,1011.7145302880001
2023-12-31T02:09:32.357Z,1011.612938924
2023-12-31T02:10:32.385Z,1011.612938924
2023-12-31T02:11:32.014Z,1011.7145302880001
2023-12-31T02:12:32.350Z,1011.612938924
2023-12-31T02:13:32.366Z,1011.7145302880001
2023-12-31T02:14:32.341Z,1011.51134756
2023-12-31T02:15:31.918Z,1011.612938924
2023-12-31T02:16:32.485Z,1011.51134756
2023-12-31T02:17:32.536Z,1011.7145302880001
2023-12-31T02:18:32.426Z,1011.409756196
2023-12-31T02:19:32.131Z,1011.816121652
2023-12-31T02:20:32.367Z,1011.612938924
2023-12-31T02:21:32.339Z,1011.7145302880001
2023-12-31T02:22:32.403Z,1011.816121652
2023-12-31T02:23:31.943Z,1011.612938924
2023-12-31T02:24:32.414Z,1011.7145302880001
2023-12-31T02:25:32.586Z,1011.612938924
2023-12-31T02:26:32.382Z,1011.9177130160001
2023-12-31T02:27:31.923Z,1011.816121652
2023-12-31T02:28:32.567Z,1011.51134756
2023-12-31T02:29:32.356Z,1011.7145302880001
2023-12-31T02:30:32.420Z,1011.7145302880001
2023-12-31T02:31:32.045Z,1012.0193043800001
2023-12-31T02:32:32.471Z,1011.7145302880001
2023-12-31T02:33:32.528Z,1011.7145302880001
2023-12-31T02:34:32.511Z,1011.51134756
2023-12-31T02:35:31.941Z,1011.612938924
2023-12-31T02:36:32.468Z,1011.7145302880001
2023-12-31T02:37:32.360Z,1011.7145302880001
2023-12-31T02:38:32.410Z,1011.816121652
2023-12-31T02:39:31.914Z,1011.7145302880001
2023-12-31T02:40:32.388Z,1011.7145302880001
2023-12-31T02:41:32.382Z,1011.816121652
2023-12-31T02:42:32.389Z,1011.816121652
2023-12-31T02:43:32.101Z,1011.816121652
2023-12-31T02:44:32.488Z,1011.816121652
2023-12-31T02:45:32.397Z,1011.816121652
2023-12-31T02:46:32.370Z,1012.0193043800001
2023-12-31T02:47:32.158Z,1011.9177130160001
2023-12-31T02:48:32.494Z,1011.816121652
2023-12-31T02:49:32.421Z,1011.7145302880001
2023-12-31T02:50:32.371Z,1012.120895744
2023-12-31T02:51:31.936Z,1011.9177130160001
2023-12-31T02:52:32.417Z,1012.324078472
2023-12-31T02:53:32.460Z,1012.0193043800001
2023-12-31T02:54:32.453Z,1012.0193043800001
2023-12-31T02:55:32.027Z,1012.120895744
2023-12-31T02:56:32.329Z,1012.0193043800001
2023-12-31T02:57:32.366Z,1012.0193043800001
2023-12-31T02:58:32.403Z,1012.120895744
2023-12-31T02:59:31.903Z,1012.120895744
2023-12-31T03:00:32.493Z,1012.2224871079999
2023-12-31T03:01:32.651Z,1012.120895744
2023-12-31T03:02:32.345Z,1012.120895744
2023-12-31T03:03:32.046Z,1012.0193043800001
2023-12-31T03:04:32.329Z,1012.324078472
2023-12-31T03:05:32.481Z,1012.2224871079999
2023-12-31T03:06:32.327Z,1012.2224871079999
2023-12-31T03:07:32.100Z,1012.0193043800001
2023-12-31T03:08:32.452Z,1012.120895744
2023-12-31T03:09:32.375Z,1012.2224871079999
2023-12-31T03:10:32.419Z,1012.120895744
2023-12-31T03:11:31.925Z,1012.2224871079999
2023-12-31T03:12:32.327Z,1012.120895744
2023-12-31T03:13:32.554Z,1012.4256698359999
2023-12-31T03:14:32.338Z,1012.4256698359999
2023-12-31T03:15:31.923Z,1012.120895744
2023-12-31T03:16:32.593Z,1012.628852564
2023-12-31T03:17:32.711Z,1012.324078472
2023-12-31T03:18:32.406Z,1012.4256698359999
2023-12-31T03:19:32.336Z,1012.324078472
2023-12-31T03:20:32.318Z,1012.324078472
2023-12-31T03:21:32.385Z,1012.4256698359999
2023-12-31T03:22:41.507Z,1012.5272611999999
2023-12-31T03:23:32.055Z,1012.628852564
2023-12-31T03:24:32.316Z,1012.4256698359999
2023-12-31T03:25:32.399Z,1012.4256698359999
2023-12-31T03:26:32.332Z,1012.5272611999999
2023-12-31T03:27:32.046Z,1012.628852564
2023-12-31T03:28:32.355Z,1012.5272611999999
2023-12-31T03:29:32.343Z,1012.628852564
2023-12-31T03:30:32.486Z,1012.4256698359999
2023-12-31T03:31:32.137Z,1012.628852564
2023-12-31T03:32:32.554Z,1012.324078472
2023-12-31T03:33:32.510Z,1012.5272611999999
2023-12-31T03:34:32.532Z,1012.324078472
2023-12-31T03:35:32.047Z,1012.5272611999999
2023-12-31T03:36:32.421Z,1012.5272611999999
2023-12-31T03:37:32.507Z,1012.5272611999999
2023-12-31T03:38:32.395Z,1012.4256698359999
2023-12-31T03:39:31.921Z,1012.7304439279999
2023-12-31T03:40:32.336Z,1012.628852564
2023-12-31T03:41:32.442Z,1012.7304439279999
2023-12-31T03:42:32.312Z,1012.5272611999999
2023-12-31T03:43:32.168Z,1012.7304439279999
2023-12-31T03:44:32.419Z,1012.628852564
2023-12-31T03:45:32.502Z,1012.628852564
2023-12-31T03:46:32.406Z,1012.5272611999999
2023-12-31T03:47:32.012Z,1012.4256698359999
2023-12-31T03:48:32.610Z,1012.4256698359999
2023-12-31T03:49:32.372Z,1012.628852564
2023-12-31T03:50:32.320Z,1012.7304439279999
2023-12-31T03:51:31.943Z,1012.628852564
2023-12-31T03:52:32.427Z,1012.7304439279999
2023-12-31T03:53:32.332Z,1012.628852564
2023-12-31T03:54:32.406Z,1012.8320352919999
2023-12-31T03:55:31.988Z,1012.628852564
2023-12-31T03:56:32.709Z,1012.4256698359999
2023-12-31T03:57:32.331Z,1012.7304439279999
2023-12-31T03:58:32.390Z,1012.8320352919999
2023-12-31T03:59:31.955Z,1012.7304439279999
2023-12-31T04:00:32.406Z,1012.7304439279999
2023-12-31T04:01:32.341Z,1012.5272611999999
2023-12-31T04:02:32.403Z,1012.8320352919999
2023-12-31T04:03:31.978Z,1012.628852564
2023-12-31T04:04:32.505Z,1012.8320352919999
2023-12-31T04:05:32.532Z,1012.8320352919999
2023-12-31T04:06:33.059Z,1012.8320352919999
2023-12-31T04:07:31.971Z,1012.7304439279999
2023-12-31T04:08:32.336Z,1012.933626656
2023-12-31T04:09:32.327Z,1012.933626656
2023-12-31T04:10:32.397Z,1012.933626656
2023-12-31T04:11:31.940Z,1012.8320352919999
2023-12-31T04:12:32.315Z,1012.8320352919999
2023-12-31T04:13:32.439Z,1012.8320352919999
2023-12-31T04:14:32.358Z,1013.03521802
2023-12-31T04:15:31.921Z,1012.933626656
2023-12-31T04:16:32.482Z,1013.1368093839999
2023-12-31T04:17:32.370Z,1013.1368093839999
2023-12-31T04:18:32.522Z,1013.03521802
2023-12-31T04:19:31.952Z,1012.933626656
2023-12-31T04:20:32.320Z,1012.7304439279999
2023-12-31T04:21:32.328Z,1013.03521802
2023-12-31T04:22:32.368Z,1013.1368093839999
2023-12-31T04:23:31.936Z,1013.03521802
2023-12-31T04:24:32.329Z,1013.03521802
2023-12-31T04:25:32.375Z,1012.8320352919999
2023-12-31T04:26:32.340Z,1012.8320352919999
2023-12-31T04:27:32.015Z,1012.933626656
2023-12-31T04:28:32.368Z,1013.1368093839999
2023-12-31T04:29:32.297Z,1012.933626656
2023-12-31T04:30:32.428Z,1012.933626656
2023-12-31T04:31:31.932Z,1013.1368093839999
2023-12-31T04:32:32.362Z,1013.03521802
2023-12-31T04:33:32.347Z,1013.1368093839999
2023-12-31T04:34:32.377Z,1013.03521802
2023-12-31T04:35:31.917Z,1013.03521802
2023-12-31T04:36:32.312Z,1013.1368093839999
2023-12-31T04:37:32.406Z,1013.03521802
2023-12-31T04:38:32.338Z,1013.238400748
2023-12-31T04:39:31.932Z,1013.238400748
2023-12-31T04:40:32.385Z,1013.03521802
2023-12-31T04:41:32.317Z,1013.238400748
2023-12-31T04:42:32.347Z,1013.1368093839999
2023-12-31T04:43:31.965Z,1013.339992112
2023-12-31T04:44:32.320Z,1013.1368093839999
2023-12-31T04:45:32.325Z,1013.03521802
2023-12-31T04:46:32.397Z,1013.4077196879999
2023-12-31T04:47:31.940Z,1013.238400748
2023-12-31T04:48:32.322Z,1013.238400748
2023-12-31T04:49:32.406Z,1013.339992112
2023-12-31T04:50:32.472Z,1013.1368093839999
2023-12-31T04:51:31.922Z,1012.933626656
2023-12-31T04:52:32.323Z,1013.238400748
2023-12-31T04:53:32.328Z,1013.238400748
2023-12-31T04:54:32.317Z,1013.1368093839999
2023-12-31T04:55:31.978Z,1013.4077196879999
2023-12-31T04:56:32.326Z,1013.4077196879999
2023-12-31T04:57:32.328Z,1013.339992112
2023-12-31T04:58:32.460Z,1013.339992112
2023-12-31T04:59:31.935Z,1013.4077196879999
2023-12-31T05:00:32.347Z,1013.4077196879999
2023-12-31T05:01:32.389Z,1013.4077196879999
2023-12-31T05:02:32.331Z,1013.1368093839999
2023-12-31T05:03:31.963Z,1013.4077196879999
2023-12-31T05:04:32.399Z,1013.339992112
2023-12-31T05:05:32.340Z,1013.1368093839999
2023-12-31T05:06:32.301Z,1013.4077196879999
2023-12-31T05:07:31.914Z,1013.339992112
2023-12-31T05:08:32.353Z,1013.6109024159999
2023-12-31T05:09:32.340Z,1013.4077196879999
2023-12-31T05:10:32.347Z,1013.5093110519999
2023-12-31T05:11:31.937Z,1013.339992112
2023-12-31T05:12:32.368Z,1013.238400748
2023-12-31T05:13:32.378Z,1013.238400748
2023-12-31T05:14:32.325Z,1013.5093110519999
2023-12-31T05:15:31.975Z,1013.5093110519999
2023-12-31T05:16:32.407Z,1013.4077196879999
2023-12-31T05:17:32.406Z,1013.5093110519999
2023-12-31T05:18:32.342Z,1013.6109024159999
2023-12-31T05:19:32.002Z,1013.4077196879999
2023-12-31T05:20:32.340Z,1013.339992112
2023-12-31T05:21:32.323Z,1013.4077196879999
2023-12-31T05:22:32.360Z,1013.4077196879999
2023-12-31T05:23:31.933Z,1013.4077196879999
2023-12-31T05:24:32.348Z,1013.4077196879999
2023-12-31T05:25:32.356Z,1013.339992112
2023-12-31T05:26:32.370Z,1013.4077196879999
2023-12-31T05:27:31.983Z,1013.339992112
2023-12-31T05:28:32.408Z,1013.4077196879999
2023-12-31T05:29:32.341Z,1013.238400748
2023-12-31T05:30:32.362Z,1013.339992112
2023-12-31T05:31:31.981Z,1013.4077196879999
2023-12-31T05:32:32.368Z,1013.4077196879999
2023-12-31T05:33:32.302Z,1013.4077196879999
2023-12-31T05:34:32.334Z,1013.4077196879999
2023-12-31T05:35:31.941Z,1013.6109024159999
2023-12-31T05:36:32.373Z,1013.4077196879999
2023-12-31T05:37:32.334Z,1013.5093110519999
2023-12-31T05:38:32.337Z,1013.5093110519999
2023-12-31T05:39:31.908Z,1013.339992112
2023-12-31T05:40:32.348Z,1013.6109024159999
2023-12-31T05:41:32.328Z,1013.4077196879999
2023-12-31T05:42:32.320Z,1013.4077196879999
2023-12-31T05:43:32.001Z,1013.6109024159999
2023-12-31T05:44:32.353Z,1013.5093110519999
2023-12-31T05:45:32.378Z,1013.4077196879999
2023-12-31T05:46:32.430Z,1013.7124937799999
2023-12-31T05:47:45.575Z,1013.5093110519999
2023-12-31T05:48:32.552Z,1013.5093110519999
2023-12-31T05:49:32.374Z,1013.5093110519999
2023-12-31T05:50:32.385Z,1013.4077196879999
2023-12-31T05:51:31.924Z,1013.4077196879999
2023-12-31T05:52:32.373Z,1013.4077196879999
2023-12-31T05:53:32.338Z,1013.5093110519999
2023-12-31T05:54:32.305Z,1013.4077196879999
2023-12-31T05:55:31.974Z,1013.339992112
2023-12-31T05:56:32.357Z,1013.5093110519999
2023-12-31T05:57:32.337Z,1013.6109024159999
2023-12-31T05:58:32.344Z,1013.5093110519999
2023-12-31T05:59:31.930Z,1013.6109024159999
2023-12-31T06:00:32.387Z,1013.6109024159999
2023-12-31T06:01:32.334Z,1013.6109024159999
2023-12-31T06:02:32.333Z,1013.6109024159999
2023-12-31T06:03:32.015Z,1013.5093110519999
2023-12-31T06:04:32.367Z,1013.6109024159999
2023-12-31T06:05:32.369Z,1013.6109024159999
2023-12-31T06:06:32.327Z,1013.4077196879999
2023-12-31T06:07:31.944Z,1013.5093110519999
2023-12-31T06:08:32.363Z,1013.6109024159999
2023-12-31T06:09:32.333Z,1013.7124937799999
2023-12-31T06:10:32.330Z,1013.8140851439999
2023-12-31T06:11:31.949Z,1013.8140851439999
2023-12-31T06:12:32.334Z,1013.8140851439999
2023-12-31T06:13:32.360Z,1013.8140851439999
2023-12-31T06:14:32.312Z,1013.7124937799999
2023-12-31T06:15:31.956Z,1013.9156765079999
2023-12-31T06:16:32.439Z,1013.7124937799999
2023-12-31T06:17:32.365Z,1013.8140851439999
2023-12-31T06:18:32.382Z,1013.6109024159999
2023-12-31T06:19:31.968Z,1013.8140851439999
2023-12-31T06:20:32.404Z,1013.8140851439999
2023-12-31T06:21:32.305Z,1013.7124937799999
2023-12-31T06:22:32.373Z,1013.7124937799999
2023-12-31T06:23:31.951Z,1013.8140851439999
2023-12-31T06:24:32.358Z,1013.7124937799999
2023-12-31T06:25:32.415Z,1013.7124937799999
2023-12-31T06:26:32.301Z,1013.6109024159999
2023-12-31T06:27:31.913Z,1013.9156765079999
2023-12-31T06:28:32.394Z,1014.0172678719999
2023-12-31T06:29:32.296Z,1013.9156765079999
2023-12-31T06:30:32.401Z,1014.0172678719999
2023-12-31T06:31:32.066Z,1013.8140851439999
2023-12-31T06:32:32.458Z,1014.0172678719999
2023-12-31T06:33:32.402Z,1014.0172678719999
2023-12-31T06:34:32.368Z,1013.9156765079999
2023-12-31T06:35:31.966Z,1013.9156765079999
2023-12-31T06:36:32.364Z,1013.9156765079999
2023-12-31T06:37:32.369Z,1013.9156765079999
2023-12-31T06:38:32.302Z,1014.1188592359999
2023-12-31T06:39:31.949Z,1014.0172678719999
2023-12-31T06:40:32.356Z,1014.0172678719999
2023-12-31T06:41:32.296Z,1014.1188592359999
2023-12-31T06:42:32.300Z,1013.9156765079999
2023-12-31T06:43:31.948Z,1014.2204505999999
2023-12-31T06:44:32.322Z,1014.0172678719999
2023-12-31T06:45:32.347Z,1014.2204505999999
2023-12-31T06:46:32.386Z,1014.1188592359999
2023-12-31T06:47:31.969Z,1014.1188592359999
2023-12-31T06:48:32.414Z,1014.1188592359999
2023-12-31T06:49:32.335Z,1014.0172678719999
2023-12-31T06:50:32.325Z,1014.1188592359999
2023-12-31T06:51:31.938Z,1014.0172678719999
2023-12-31T06:52:32.374Z,1014.1188592359999
2023-12-31T06:53:32.294Z,1014.0172678719999
2023-12-31T06:54:32.351Z,1014.1188592359999
2023-12-31T06:55:31.963Z,1014.1188592359999
2023-12-31T06:56:32.312Z,1014.0172678719999
2023-12-31T06:57:32.313Z,1014.0172678719999
2023-12-31T06:58:32.332Z,1013.9156765079999
2023-12-31T06:59:31.924Z,1013.9156765079999
2023-12-31T07:00:32.364Z,1014.0172678719999
2023-12-31T07:01:32.385Z,1014.0172678719999
2023-12-31T07:02:32.341Z,1014.1188592359999
2023-12-31T07:03:31.958Z,1013.9156765079999
2023-12-31T07:04:32.426Z,1014.2204505999999
2023-12-31T07:05:32.357Z,1014.0172678719999
2023-12-31T07:06:32.324Z,1014.1188592359999
2023-12-31T07:07:31.983Z,1014.1188592359999
2023-12-31T07:08:32.379Z,1014.1188592359999
2023-12-31T07:09:32.295Z,1014.1188592359999
2023-12-31T07:10:32.310Z,1014.1188592359999
2023-12-31T07:11:31.958Z,1014.1188592359999
2023-12-31T07:12:32.374Z,1014.2204505999999
2023-12-31T07:13:32.343Z,1014.0172678719999
2023-12-31T07:14:32.303Z,1014.1188592359999
2023-12-31T07:15:31.941Z,1014.2204505999999
2023-12-31T07:16:32.386Z,1014.3220419639999
2023-12-31T07:17:32.365Z,1014.3220419639999
2023-12-31T07:18:32.388Z,1014.2204505999999
2023-12-31T07:19:31.964Z,1014.3220419639999
2023-12-31T07:20:32.361Z,1014.423633328
2023-12-31T07:21:32.321Z,1014.2204505999999
2023-12-31T07:22:32.354Z,1014.3220419639999
2023-12-31T07:23:31.967Z,1014.423633328
2023-12-31T07:24:32.330Z,1014.423633328
2023-12-31T07:25:32.370Z,1014.423633328
2023-12-31T07:26:32.308Z,1014.3220419639999
2023-12-31T07:27:31.927Z,1014.3220419639999
2023-12-31T07:28:32.383Z,1014.3220419639999
2023-12-31T07:29:32.343Z,1014.3220419639999
2023-12-31T07:30:32.384Z,1014.6268160559999
2023-12-31T07:31:31.929Z,1014.423633328
2023-12-31T07:32:32.343Z,1014.5252246919999
2023-12-31T07:33:32.363Z,1014.6268160559999
2023-12-31T07:34:32.323Z,1014.5252246919999
2023-12-31T07:35:31.945Z,1014.6268160559999
2023-12-31T07:36:32.343Z,1014.6268160559999
2023-12-31T07:37:32.364Z,1014.423633328
2023-12-31T07:38:32.347Z,1014.6268160559999
2023-12-31T07:39:31.961Z,1014.5252246919999
2023-12-31T07:40:32.392Z,1014.423633328
2023-12-31T07:41:32.435Z,1014.6268160559999
2023-12-31T07:42:32.321Z,1014.6268160559999
2023-12-31T07:43:32.014Z,1014.6268160559999
2023-12-31T07:44:32.361Z,1014.6268160559999
2023-12-31T07:45:32.374Z,1014.72840742
2023-12-31T07:46:32.323Z,1014.6268160559999
2023-12-31T07:47:32.054Z,1014.72840742
2023-12-31T07:48:32.423Z,1014.829998784
2023-12-31T07:49:32.386Z,1014.5252246919999
2023-12-31T07:50:32.362Z,1014.9315901479999
2023-12-31T07:51:31.946Z,1014.829998784
2023-12-31T07:52:32.369Z,1015.033181512
2023-12-31T07:53:32.294Z,1014.829998784
2023-12-31T07:54:32.399Z,1014.72840742
2023-12-31T07:55:31.979Z,1014.9315901479999
2023-12-31T07:56:32.347Z,1014.9315901479999
2023-12-31T07:57:32.335Z,1015.033181512
2023-12-31T07:58:32.430Z,1015.033181512
2023-12-31T07:59:31.928Z,1014.9315901479999
2023-12-31T08:00:32.388Z,1014.829998784
2023-12-31T08:01:32.442Z,1015.033181512
2023-12-31T08:02:32.345Z,1015.134772876
2023-12-31T08:03:31.996Z,1015.4395469680001
2023-12-31T08:04:32.376Z,1015.134772876
2023-12-31T08:05:32.396Z,1015.134772876
2023-12-31T08:06:32.379Z,1015.3379556040001
2023-12-31T08:07:32.085Z,1015.3379556040001
2023-12-31T08:08:32.285Z,1015.4395469680001
2023-12-31T08:09:32.313Z,1015.4395469680001
2023-12-31T08:10:32.305Z,1015.033181512
2023-12-31T08:11:31.950Z,1015.033181512
2023-12-31T08:12:32.325Z,1014.9315901479999
2023-12-31T08:13:32.340Z,1015.134772876
2023-12-31T08:14:32.334Z,1015.033181512
2023-12-31T08:15:31.959Z,1014.829998784
2023-12-31T08:16:32.314Z,1014.9315901479999
2023-12-31T08:17:32.346Z,1014.9315901479999
2023-12-31T08:18:32.399Z,1015.033181512
2023-12-31T08:19:31.976Z,1014.9315901479999
2023-12-31T08:20:32.304Z,1015.033181512
2023-12-31T08:21:32.339Z,1014.829998784
2023-12-31T08:22:32.316Z,1015.134772876
2023-12-31T08:23:31.941Z,1015.033181512
2023-12-31T08:24:32.293Z,1015.033181512
2023-12-31T08:25:32.368Z,1015.033181512
2023-12-31T08:26:32.307Z,1014.9315901479999
2023-12-31T08:27:31.954Z,1014.72840742
2023-12-31T08:28:32.314Z,1015.3379556040001
2023-12-31T08:29:32.440Z,1014.9315901479999
2023-12-31T08:30:32.332Z,1015.134772876
2023-12-31T08:31:31.956Z,1014.9315901479999
2023-12-31T08:32:32.331Z,1015.033181512
2023-12-31T08:33:32.330Z,1015.134772876
2023-12-31T08:34:32.351Z,1015.134772876
2023-12-31T08:35:31.969Z,1015.134772876
2023-12-31T08:36:32.298Z,1015.134772876
2023-12-31T08:37:32.372Z,1015.033181512
2023-12-31T08:38:32.304Z,1015.033181512
2023-12-31T08:39:32.075Z,1015.23636424
2023-12-31T08:40:32.489Z,1015.033181512
2023-12-31T08:41:32.332Z,1014.9315901479999
2023-12-31T08:42:32.294Z,1015.134772876
2023-12-31T08:43:32.178Z,1015.23636424
2023-12-31T08:44:32.346Z,1015.134772876
2023-12-31T08:45:32.324Z,1015.23636424
2023-12-31T08:46:32.454Z,1015.4395469680001
2023-12-31T08:47:32.004Z,1015.4395469680001
2023-12-31T08:48:32.376Z,1015.3379556040001
2023-12-31T08:49:32.334Z,1015.4395469680001
2023-12-31T08:50:32.337Z,1015.4395469680001
2023-12-31T08:51:31.918Z,1015.3379556040001
2023-12-31T08:52:32.335Z,1015.4395469680001
2023-12-31T08:53:32.312Z,1015.608865908
2023-12-31T08:54:32.286Z,1015.608865908
2023-12-31T08:55:31.997Z,1015.507274544
2023-12-31T08:56:32.350Z,1015.608865908
2023-12-31T08:57:32.291Z,1015.7104572719999
2023-12-31T08:58:32.314Z,1015.812048636
2023-12-31T08:59:31.958Z,1015.812048636
2023-12-31T09:00:32.359Z,1015.812048636
2023-12-31T09:01:32.402Z,1015.812048636
2023-12-31T09:02:32.262Z,1015.608865908
2023-12-31T09:03:31.956Z,1015.7104572719999
2023-12-31T09:04:32.520Z,1015.608865908
2023-12-31T09:05:32.364Z,1015.812048636
2023-12-31T09:06:32.341Z,1015.507274544
2023-12-31T09:07:31.938Z,1015.608865908
2023-12-31T09:08:32.393Z,1015.507274544
2023-12-31T09:09:32.277Z,1015.608865908
2023-12-31T09:10:32.335Z,1015.608865908
2023-12-31T09:11:31.946Z,1015.608865908
2023-12-31T09:12:32.288Z,1015.608865908
2023-12-31T09:13:32.410Z,1015.7104572719999
2023-12-31T09:14:32.343Z,1015.7104572719999
2023-12-31T09:15:31.942Z,1015.608865908
2023-12-31T09:16:32.343Z,1015.507274544
2023-12-31T09:17:35.046Z,1015.812048636
2023-12-31T09:18:32.346Z,1015.7104572719999
2023-12-31T09:19:32.014Z,1015.507274544
2023-12-31T09:20:32.388Z,1015.608865908
2023-12-31T09:21:32.352Z,1015.7104572719999
2023-12-31T09:22:32.337Z,1015.7104572719999
2023-12-31T09:23:31.919Z,1015.7104572719999
2023-12-31T09:24:32.337Z,1015.7104572719999
2023-12-31T09:25:32.470Z,1015.608865908